Time;durP1;ratioP1;P1;durP2;ratioP2;P2;SDS_P1;SDS_P2;PMS_P1;PMS_P2;Temp;Humidity;BMP_temperature;BMP_pressure;BME280_temperature;BME280_humidity;BME280_pressure;Samples;Min_cycle;Max_cycle;Signal;HPM_P1;HPM_P2
2023/03/28 00:01:52;;;;;;;14.40;2.60;;;3.00;99.90;;;;;;5048253;28;20477;-71
2023/03/28 00:04:21;;;;;;;12.85;2.42;;;3.00;99.90;;;;;;5068854;28;20036;-71
2023/03/28 00:06:52;;;;;;;18.15;2.88;;;2.90;99.90;;;;;;5060309;28;20032;-71
2023/03/28 00:09:18;;;;;;;13.90;2.53;;;3.00;99.90;;;;;;5063730;28;20507;-71
2023/03/28 00:11:44;;;;;;;15.32;2.30;;;2.90;99.90;;;;;;5065423;28;20095;-71
2023/03/28 00:14:13;;;;;;;13.05;3.65;;;2.90;99.90;;;;;;5034762;28;20049;-71
2023/03/28 00:16:40;;;;;;;13.10;2.35;;;2.90;99.90;;;;;;5053253;28;20045;-71
2023/03/28 00:19:08;;;;;;;13.55;2.85;;;2.90;99.90;;;;;;5054890;28;20037;-71
2023/03/28 00:21:41;;;;;;;14.05;2.80;;;2.80;99.90;;;;;;5051472;28;20119;-71
2023/03/28 00:24:12;;;;;;;10.23;2.47;;;2.80;99.90;;;;;;5065981;28;20083;-71
2023/03/28 00:26:38;;;;;;;16.20;2.60;;;2.80;99.90;;;;;;5049932;28;20439;-71
2023/03/28 00:29:07;;;;;;;15.70;2.70;;;2.80;99.90;;;;;;5069452;28;20048;-71
2023/03/28 00:31:36;;;;;;;16.45;2.60;;;2.80;99.90;;;;;;5064231;28;20102;-71
2023/03/28 00:34:01;;;;;;;17.52;2.65;;;2.70;99.90;;;;;;5060731;28;20112;-71
2023/03/28 00:36:31;;;;;;;13.27;2.35;;;2.70;99.90;;;;;;5045945;28;20056;-71
2023/03/28 00:39:04;;;;;;;12.40;2.47;;;2.70;99.90;;;;;;5048129;28;20040;-71
2023/03/28 00:41:31;;;;;;;14.00;2.50;;;2.70;99.90;;;;;;5061318;28;20049;-71
2023/03/28 00:43:58;;;;;;;14.35;2.95;;;2.70;99.90;;;;;;5065813;28;20400;-71
2023/03/28 00:46:33;;;;;;;16.03;2.40;;;2.70;99.90;;;;;;5057671;28;20048;-71
2023/03/28 00:49:03;;;;;;;16.02;2.63;;;2.70;99.90;;;;;;5048258;28;20313;-71
2023/03/28 00:51:36;;;;;;;14.63;3.17;;;2.60;99.90;;;;;;5063835;28;20084;-71
2023/03/28 00:54:03;;;;;;;15.32;2.92;;;2.60;99.90;;;;;;5047407;28;20123;-71
2023/03/28 00:56:32;;;;;;;12.00;2.88;;;2.60;99.90;;;;;;5042021;28;20045;-70
2023/03/28 00:59:01;;;;;;;16.95;2.88;;;2.60;99.90;;;;;;5063807;28;20041;-71
2023/03/28 01:01:27;;;;;;;12.60;2.40;;;2.60;99.90;;;;;;5062172;28;20118;-71
2023/03/28 01:04:01;;;;;;;14.77;2.80;;;2.60;99.90;;;;;;5042911;28;20453;-71
2023/03/28 01:06:36;;;;;;;14.55;2.80;;;2.60;99.90;;;;;;5042405;28;20040;-71
2023/03/28 01:09:06;;;;;;;17.27;2.40;;;2.50;99.90;;;;;;5057900;28;20551;-71
2023/03/28 01:11:34;;;;;;;12.73;2.38;;;2.50;99.90;;;;;;5056534;28;20040;-71
2023/03/28 01:14:03;;;;;;;19.48;3.20;;;2.50;99.90;;;;;;5064506;28;20480;-71
2023/03/28 01:16:29;;;;;;;12.75;2.60;;;2.50;99.90;;;;;;5053628;28;20446;-71
2023/03/28 01:19:00;;;;;;;16.85;3.17;;;2.50;99.90;;;;;;5059277;28;20161;-71
2023/03/28 01:22:11;;;;;;;15.93;2.60;;;2.50;99.90;;;;;;5056450;28;20507;-71
2023/03/28 01:24:58;;;;;;;15.07;2.80;;;2.50;99.90;;;;;;5058384;28;20514;-71
2023/03/28 01:27:37;;;;;;;14.77;2.63;;;2.40;99.90;;;;;;5042397;28;20051;-71
2023/03/28 01:30:35;;;;;;;14.75;2.60;;;2.40;99.90;;;;;;5047440;28;20052;-71
2023/03/28 01:33:21;;;;;;;11.65;2.05;;;2.40;99.90;;;;;;5040002;28;20040;-71
2023/03/28 01:36:21;;;;;;;13.93;2.95;;;2.40;99.90;;;;;;5067782;28;20040;-71
2023/03/28 01:38:47;;;;;;;13.95;2.67;;;2.40;99.90;;;;;;5055399;28;20049;-71
2023/03/28 01:41:24;;;;;;;17.08;3.05;;;2.40;99.90;;;;;;5069294;28;20041;-71
2023/03/28 01:44:01;;;;;;;15.25;2.50;;;2.40;99.90;;;;;;5065212;28;20068;-71
2023/03/28 01:46:32;;;;;;;15.02;2.38;;;2.30;99.90;;;;;;5058144;28;20045;-71
2023/03/28 01:49:07;;;;;;;16.95;2.75;;;2.30;99.90;;;;;;5061008;28;20044;-71
2023/03/28 01:51:55;;;;;;;12.98;2.30;;;2.30;99.90;;;;;;5059698;28;20063;-71
2023/03/28 01:54:59;;;;;;;13.73;2.83;;;2.30;99.90;;;;;;5059134;28;20037;-71
2023/03/28 01:57:44;;;;;;;12.43;2.58;;;2.30;99.90;;;;;;5007258;28;20381;-71
2023/03/28 02:00:23;;;;;;;9.70;2.95;;;2.20;99.90;;;;;;5052531;28;20055;-71
2023/03/28 02:02:55;;;;;;;14.93;2.40;;;2.20;99.90;;;;;;5062701;28;20100;-71
2023/03/28 02:05:23;;;;;;;10.52;2.13;;;2.20;99.90;;;;;;5063264;28;20044;-71
2023/03/28 02:07:53;;;;;;;14.10;2.30;;;2.20;99.90;;;;;;5064444;28;20033;-71
2023/03/28 02:10:24;;;;;;;12.93;2.08;;;2.20;99.90;;;;;;5066842;28;20036;-71
2023/03/28 02:12:59;;;;;;;11.13;2.50;;;2.20;99.90;;;;;;5039168;28;20071;-71
2023/03/28 02:15:27;;;;;;;12.85;2.22;;;2.20;99.90;;;;;;5052014;28;20136;-71
2023/03/28 02:17:58;;;;;;;11.30;2.50;;;2.20;99.90;;;;;;5032656;28;20139;-71
2023/03/28 02:20:27;;;;;;;10.80;2.47;;;2.20;99.90;;;;;;5041050;28;20041;-71
2023/03/28 02:23:14;;;;;;;13.73;2.55;;;2.20;99.90;;;;;;5065177;28;20445;-71
2023/03/28 02:25:40;;;;;;;16.25;2.45;;;2.20;99.90;;;;;;5066853;28;20360;-71
2023/03/28 02:28:09;;;;;;;12.60;2.22;;;2.20;99.90;;;;;;5059838;28;20094;-70
2023/03/28 02:30:37;;;;;;;12.32;2.58;;;2.10;99.90;;;;;;5067460;28;20044;-70
2023/03/28 02:33:07;;;;;;;14.95;3.30;;;2.10;99.90;;;;;;5059961;28;20044;-71
2023/03/28 02:35:54;;;;;;;13.50;3.10;;;2.10;99.90;;;;;;5041078;28;20495;-71
2023/03/28 02:38:35;;;;;;;11.68;2.88;;;2.10;99.90;;;;;;5046263;28;20044;-71
2023/03/28 02:41:26;;;;;;;14.57;3.20;;;2.10;99.90;;;;;;5049306;28;20535;-71
2023/03/28 02:44:25;;;;;;;16.73;3.00;;;2.00;99.90;;;;;;5057795;28;20403;-71
2023/03/28 02:47:02;;;;;;;15.95;2.70;;;2.00;99.90;;;;;;5062746;28;20483;-71
2023/03/28 02:49:49;;;;;;;10.98;3.03;;;2.00;99.90;;;;;;5065284;28;20072;-71
2023/03/28 02:52:33;;;;;;;17.45;2.72;;;2.00;99.90;;;;;;5045200;28;20045;-71
2023/03/28 02:55:37;;;;;;;14.85;3.03;;;2.00;99.90;;;;;;5048778;28;20132;-71
2023/03/28 02:58:33;;;;;;;13.40;2.38;;;1.90;99.90;;;;;;4986908;28;20567;-71
2023/03/28 03:01:01;;;;;;;19.70;2.53;;;1.80;99.90;;;;;;5063325;28;20064;-71
2023/03/28 03:03:27;;;;;;;;;;;1.80;99.90;;;;;;5062706;28;20097;-71
2023/03/28 03:05:53;;;;;;;15.15;2.50;;;1.80;99.90;;;;;;5059821;28;19924;-71
2023/03/28 03:08:18;;;;;;;11.75;2.97;;;1.80;99.90;;;;;;5039727;28;20048;-71
2023/03/28 03:10:44;;;;;;;8.80;2.17;;;1.80;99.90;;;;;;5063220;28;20041;-71
2023/03/28 03:13:10;;;;;;;11.68;2.50;;;1.70;99.90;;;;;;5069871;28;20040;-71
2023/03/28 03:15:35;;;;;;;13.60;2.95;;;1.70;99.90;;;;;;5059101;28;20109;-71
2023/03/28 03:18:02;;;;;;;16.17;3.30;;;1.70;99.90;;;;;;5064832;28;20036;-71
2023/03/28 03:20:32;;;;;;;9.93;2.50;;;1.70;99.90;;;;;;5069399;28;20036;-71
2023/03/28 03:23:00;;;;;;;10.60;3.13;;;1.70;99.90;;;;;;5061998;28;20407;-71
2023/03/28 03:25:27;;;;;;;10.00;2.35;;;1.70;99.90;;;;;;5061962;28;20041;-71
2023/03/28 03:27:52;;;;;;;12.38;2.60;;;1.70;99.90;;;;;;5067113;28;20036;-71
2023/03/28 03:30:18;;;;;;;14.18;2.53;;;1.70;99.90;;;;;;5044926;28;20041;-71
2023/03/28 03:32:44;;;;;;;13.82;2.55;;;1.70;99.90;;;;;;5060076;28;20435;-72
2023/03/28 03:35:10;;;;;;;14.35;2.85;;;1.60;99.90;;;;;;5063651;28;20055;-71
2023/03/28 03:37:36;;;;;;;12.50;2.85;;;1.70;99.90;;;;;;5066835;28;20511;-71
2023/03/28 03:40:04;;;;;;;15.20;2.60;;;1.70;99.90;;;;;;5051002;28;20047;-71
2023/03/28 03:42:31;;;;;;;12.93;2.30;;;1.60;99.90;;;;;;5046789;28;20045;-71
2023/03/28 03:44:56;;;;;;;12.63;3.07;;;1.60;99.90;;;;;;5065528;28;20044;-71
2023/03/28 03:47:22;;;;;;;18.85;2.97;;;1.60;99.90;;;;;;5039736;28;20305;-71
2023/03/28 03:49:48;;;;;;;10.35;2.38;;;1.60;99.90;;;;;;5061549;28;20435;-71
2023/03/28 03:52:13;;;;;;;12.25;2.10;;;1.60;99.90;;;;;;5058089;28;21013;-71
2023/03/28 03:54:39;;;;;;;15.57;3.17;;;1.60;99.90;;;;;;5053172;28;20044;-71
2023/03/28 03:57:04;;;;;;;13.80;2.30;;;1.60;99.90;;;;;;5044884;28;20090;-71
2023/03/28 03:59:30;;;;;;;11.00;2.47;;;1.60;99.90;;;;;;5063857;28;20067;-71
2023/03/28 04:01:56;;;;;;;13.73;2.50;;;1.60;99.90;;;;;;5069572;28;20040;-71
2023/03/28 04:04:22;;;;;;;12.75;2.53;;;1.60;99.90;;;;;;5040276;28;20450;-71
2023/03/28 04:06:48;;;;;;;11.43;2.90;;;1.60;99.90;;;;;;5054738;28;20106;-71
2023/03/28 04:09:13;;;;;;;14.55;3.17;;;1.60;99.90;;;;;;5044854;28;20037;-71
2023/03/28 04:11:39;;;;;;;11.18;2.80;;;1.60;99.90;;;;;;5062661;28;20044;-70
2023/03/28 04:14:05;;;;;;;13.68;3.22;;;1.60;99.90;;;;;;5056989;28;20072;-70
2023/03/28 04:16:33;;;;;;;13.98;3.28;;;1.60;99.90;;;;;;5064041;28;20090;-71
2023/03/28 04:18:59;;;;;;;19.33;3.38;;;1.60;99.90;;;;;;5047656;28;20049;-71
2023/03/28 04:21:28;;;;;;;15.95;3.72;;;1.50;99.90;;;;;;5069093;28;20048;-70
2023/03/28 04:23:54;;;;;;;16.15;3.58;;;1.60;99.90;;;;;;5040701;28;20098;-71
2023/03/28 04:26:24;;;;;;;18.10;3.95;;;1.50;99.90;;;;;;5068558;28;20043;-71
2023/03/28 04:28:54;;;;;;;15.65;3.78;;;1.50;99.90;;;;;;5058322;28;20052;-71
2023/03/28 04:31:21;;;;;;;14.75;3.42;;;1.50;99.90;;;;;;5057171;28;20090;-71
2023/03/28 04:33:48;;;;;;;16.35;3.83;;;1.50;99.90;;;;;;5057091;28;20079;-71
2023/03/28 04:36:17;;;;;;;13.65;4.00;;;1.50;99.90;;;;;;5044997;28;20045;-71
2023/03/28 04:38:46;;;;;;;15.07;3.77;;;1.50;99.90;;;;;;5044116;28;20045;-71
2023/03/28 04:41:15;;;;;;;11.98;3.65;;;1.50;99.90;;;;;;5066163;28;20033;-71
2023/03/28 04:43:44;;;;;;;13.45;3.75;;;1.50;99.90;;;;;;5067218;28;20097;-71
2023/03/28 04:46:09;;;;;;;21.92;4.60;;;1.50;99.90;;;;;;5063320;28;20098;-71
2023/03/28 04:48:35;;;;;;;14.77;3.55;;;1.50;99.90;;;;;;5062676;28;20044;-71
2023/03/28 04:51:01;;;;;;;16.70;3.20;;;1.50;99.90;;;;;;5065953;28;20115;-71
2023/03/28 04:53:26;;;;;;;16.83;3.30;;;1.50;99.90;;;;;;5050678;28;20048;-71
2023/03/28 04:55:52;;;;;;;14.45;3.72;;;1.40;99.90;;;;;;5047653;28;20036;-71
2023/03/28 04:58:21;;;;;;;16.35;3.63;;;1.40;99.90;;;;;;5068229;28;20045;-71
2023/03/28 05:00:49;;;;;;;13.90;3.35;;;1.40;99.90;;;;;;5061521;28;20438;-71
2023/03/28 05:03:19;;;;;;;12.32;3.20;;;1.40;99.90;;;;;;5062137;28;20044;-71
2023/03/28 05:05:51;;;;;;;11.10;3.10;;;1.50;99.90;;;;;;5051527;28;20082;-71
2023/03/28 05:08:19;;;;;;;13.82;2.65;;;1.50;99.90;;;;;;5065598;28;20040;-71
2023/03/28 05:10:45;;;;;;;10.38;2.78;;;1.50;99.90;;;;;;5048736;28;20088;-71
2023/03/28 05:13:12;;;;;;;11.13;2.60;;;1.40;99.90;;;;;;5043833;28;20041;-71
2023/03/28 05:15:37;;;;;;;11.20;2.47;;;1.50;99.90;;;;;;5062106;28;20119;-71
2023/03/28 05:18:04;;;;;;;12.68;2.78;;;1.40;99.90;;;;;;5062562;28;20124;-71
2023/03/28 05:20:30;;;;;;;10.32;2.42;;;1.40;99.90;;;;;;5055710;28;20044;-71
2023/03/28 05:22:56;;;;;;;12.40;2.70;;;1.50;99.90;;;;;;5058480;28;20037;-71
2023/03/28 05:25:22;;;;;;;11.60;2.78;;;1.50;99.90;;;;;;5046233;28;20044;-71
2023/03/28 05:27:48;;;;;;;12.43;2.55;;;1.50;99.90;;;;;;5060261;28;20052;-71
2023/03/28 05:30:14;;;;;;;9.60;2.42;;;1.50;99.90;;;;;;5060725;28;20044;-71
2023/03/28 05:32:40;;;;;;;12.27;2.75;;;1.50;99.90;;;;;;5058162;28;20040;-71
2023/03/28 05:35:08;;;;;;;12.07;2.55;;;1.50;99.90;;;;;;5055920;28;20075;-71
2023/03/28 05:37:35;;;;;;;15.60;2.75;;;1.50;99.90;;;;;;5066690;28;20052;-71
2023/03/28 05:40:01;;;;;;;;;;;1.50;99.90;;;;;;5057158;28;20044;-71
2023/03/28 05:42:27;;;;;;;12.80;3.00;;;1.50;99.90;;;;;;5037846;28;19925;-71
2023/03/28 05:44:53;;;;;;;12.88;2.40;;;1.50;99.90;;;;;;5060954;28;20052;-71
2023/03/28 05:47:19;;;;;;;12.57;3.17;;;1.60;99.90;;;;;;5058188;28;20037;-71
2023/03/28 05:49:44;;;;;;;12.50;2.88;;;1.60;99.90;;;;;;5065901;28;20102;-71
2023/03/28 05:52:10;;;;;;;11.68;2.60;;;1.60;99.90;;;;;;5064356;28;20442;-71
2023/03/28 05:54:36;;;;;;;13.57;2.90;;;1.70;99.90;;;;;;5056634;28;20041;-71
2023/03/28 05:57:02;;;;;;;13.02;2.90;;;1.70;99.90;;;;;;5062308;28;20052;-71
2023/03/28 05:59:28;;;;;;;8.98;2.38;;;1.70;99.90;;;;;;5058977;28;20056;-71
2023/03/28 06:01:54;;;;;;;12.80;2.70;;;1.70;99.90;;;;;;5065413;28;20495;-71
2023/03/28 06:04:21;;;;;;;9.40;2.92;;;1.70;99.90;;;;;;5045295;28;20048;-71
2023/03/28 06:06:50;;;;;;;11.47;2.63;;;1.80;99.90;;;;;;5062672;28;20047;-71
2023/03/28 06:09:16;;;;;;;10.18;2.70;;;1.80;99.90;;;;;;5066244;28;20360;-71
2023/03/28 06:11:42;;;;;;;8.15;2.70;;;1.80;99.90;;;;;;5061230;28;20045;-71
2023/03/28 06:14:09;;;;;;;11.73;2.80;;;1.90;99.90;;;;;;5045710;28;20040;-71
2023/03/28 06:16:35;;;;;;;15.63;3.17;;;1.90;99.90;;;;;;5064748;28;20064;-71
2023/03/28 06:19:00;;;;;;;12.88;3.13;;;2.00;99.90;;;;;;5070454;28;20048;-71
2023/03/28 06:21:26;;;;;;;11.18;2.85;;;2.00;99.90;;;;;;5068812;28;20037;-71
2023/03/28 06:23:52;;;;;;;11.07;2.85;;;2.10;99.90;;;;;;5049808;28;20051;-71
2023/03/28 06:26:18;;;;;;;10.70;3.30;;;2.20;99.90;;;;;;5048656;28;20056;-71
2023/03/28 06:28:46;;;;;;;10.00;3.10;;;2.20;99.90;;;;;;5063272;28;20043;-71
2023/03/28 06:31:13;;;;;;;16.08;3.60;;;2.30;99.90;;;;;;5065851;28;20147;-71
2023/03/28 06:33:40;;;;;;;11.90;3.28;;;2.30;99.90;;;;;;5070360;28;20116;-71
2023/03/28 06:36:10;;;;;;;12.48;3.13;;;2.40;99.90;;;;;;5072022;28;20071;-71
2023/03/28 06:38:36;;;;;;;12.02;2.83;;;2.40;99.90;;;;;;5067932;28;20052;-71
2023/03/28 06:41:02;;;;;;;16.77;3.45;;;2.50;99.90;;;;;;5065222;28;20044;-71
2023/03/28 06:43:29;;;;;;;14.63;5.07;;;2.50;99.90;;;;;;5067856;28;20056;-71
2023/03/28 06:45:55;;;;;;;;;;;2.60;99.90;;;;;;5064024;28;20491;-71
2023/03/28 06:48:21;;;;;;;13.75;2.83;;;2.70;99.90;;;;;;5067640;28;19920;-71
2023/03/28 06:50:49;;;;;;;17.08;3.47;;;2.70;99.90;;;;;;5064463;28;20037;-71
2023/03/28 06:53:15;;;;;;;;;;;2.80;99.90;;;;;;5051912;28;20052;-71
2023/03/28 06:55:44;;;;;;;11.38;2.90;;;2.90;99.90;;;;;;5073113;28;19927;-71
2023/03/28 06:58:10;;;;;;;13.88;2.83;;;3.00;99.90;;;;;;5062203;28;20082;-71
2023/03/28 07:00:37;;;;;;;10.38;2.45;;;3.10;99.90;;;;;;5067295;28;20588;-71
2023/03/28 07:03:03;;;;;;;17.75;2.75;;;3.30;99.90;;;;;;5047221;28;20167;-71
2023/03/28 07:05:29;;;;;;;14.02;2.80;;;3.40;99.90;;;;;;5059548;28;20143;-71
2023/03/28 07:07:55;;;;;;;12.93;3.10;;;3.40;99.90;;;;;;5043635;28;20033;-71
2023/03/28 07:10:21;;;;;;;13.27;2.92;;;3.50;99.90;;;;;;5067755;28;20512;-71
2023/03/28 07:12:47;;;;;;;13.15;3.10;;;3.50;99.90;;;;;;5061631;28;20067;-71
2023/03/28 07:15:12;;;;;;;10.73;2.60;;;3.60;99.90;;;;;;5062727;28;20073;-71
2023/03/28 07:17:38;;;;;;;10.68;2.70;;;3.60;99.90;;;;;;5066443;28;20447;-71
2023/03/28 07:20:05;;;;;;;13.82;3.05;;;3.60;99.90;;;;;;5066348;28;20036;-72
2023/03/28 07:22:31;;;;;;;13.07;2.67;;;3.70;99.90;;;;;;5065748;28;20047;-69
2023/03/28 07:24:57;;;;;;;16.40;2.75;;;3.70;99.90;;;;;;5059493;28;20056;-71
2023/03/28 07:27:23;;;;;;;13.23;3.05;;;3.70;99.90;;;;;;5061818;28;20389;-69
2023/03/28 07:29:48;;;;;;;13.25;2.92;;;3.70;99.90;;;;;;5068666;28;20040;-69
2023/03/28 07:32:14;;;;;;;12.45;2.80;;;3.80;99.90;;;;;;5066640;28;20033;-70
2023/03/28 07:34:41;;;;;;;11.80;2.60;;;3.80;99.90;;;;;;5053869;28;20389;-69
2023/03/28 07:37:08;;;;;;;13.15;2.75;;;3.90;99.90;;;;;;5052845;28;20048;-70
2023/03/28 07:39:33;;;;;;;17.95;3.13;;;3.90;99.90;;;;;;5064207;28;20091;-70
2023/03/28 07:42:00;;;;;;;13.90;4.22;;;4.00;99.90;;;;;;5072823;28;20481;-69
2023/03/28 07:44:25;;;;;;;14.85;3.53;;;4.10;99.90;;;;;;5061081;28;20053;-69
2023/03/28 07:46:51;;;;;;;14.02;2.78;;;4.20;99.90;;;;;;5063497;28;20063;-69
2023/03/28 07:49:19;;;;;;;14.73;3.00;;;4.30;99.90;;;;;;5060405;28;20041;-69
2023/03/28 07:51:46;;;;;;;16.30;3.60;;;4.40;99.90;;;;;;5045054;28;20074;-68
2023/03/28 07:54:16;;;;;;;11.30;3.03;;;4.40;99.90;;;;;;5049706;28;20101;-68
2023/03/28 07:56:46;;;;;;;12.73;3.10;;;4.50;99.90;;;;;;5035447;28;20052;-69
2023/03/28 07:59:12;;;;;;;15.45;2.72;;;4.70;99.90;;;;;;5055508;28;20049;-68
2023/03/28 08:01:39;;;;;;;13.20;3.25;;;4.80;99.90;;;;;;5053431;28;20736;-69
2023/03/28 08:04:08;;;;;;;13.55;2.70;;;4.90;99.90;;;;;;5057174;28;20066;-69
2023/03/28 08:06:37;;;;;;;19.15;3.60;;;4.90;99.90;;;;;;5052444;28;20057;-68
2023/03/28 08:09:12;;;;;;;10.10;2.67;;;5.00;99.90;;;;;;5037390;28;20051;-68
2023/03/28 08:11:39;;;;;;;13.27;2.70;;;4.90;99.90;;;;;;5062605;28;20036;-69
2023/03/28 08:14:08;;;;;;;14.98;3.03;;;4.90;99.90;;;;;;5052460;28;20045;-69
2023/03/28 08:16:34;;;;;;;12.65;2.75;;;4.90;99.90;;;;;;5044607;28;20043;-70
2023/03/28 08:18:59;;;;;;;10.90;2.40;;;4.90;99.90;;;;;;5065021;28;20118;-69
2023/03/28 08:21:26;;;;;;;11.38;2.30;;;4.90;99.90;;;;;;5065102;28;20070;-69
2023/03/28 08:23:52;;;;;;;14.13;2.50;;;5.00;99.90;;;;;;5062884;28;20033;-69
2023/03/28 08:26:18;;;;;;;6.10;1.90;;;5.10;99.90;;;;;;5052374;28;20869;-69
2023/03/28 08:28:44;;;;;;;12.18;2.08;;;5.20;99.90;;;;;;5040165;28;20044;-69
2023/03/28 08:31:15;;;;;;;11.68;2.22;;;5.30;99.90;;;;;;5063990;28;20071;-69
2023/03/28 08:33:42;;;;;;;10.70;2.67;;;5.40;99.90;;;;;;5057279;28;20049;-69
2023/03/28 08:36:13;;;;;;;12.20;2.45;;;5.50;99.90;;;;;;5052396;28;20395;-69
2023/03/28 08:38:46;;;;;;;15.00;3.17;;;5.50;99.90;;;;;;5052260;28;20041;-69
2023/03/28 08:41:32;;;;;;;10.77;2.80;;;5.60;99.90;;;;;;5060619;28;20056;-68
2023/03/28 08:44:22;;;;;;;9.52;2.28;;;5.70;99.90;;;;;;5027719;28;20185;-68
2023/03/28 08:46:54;;;;;;;14.25;3.13;;;5.70;99.90;;;;;;5069042;28;20044;-69
2023/03/28 08:49:19;;;;;;;11.05;2.63;;;5.80;99.90;;;;;;5058660;28;20107;-68
2023/03/28 08:51:56;;;;;;;13.40;3.15;;;5.80;99.90;;;;;;5070870;28;20463;-69
2023/03/28 08:54:37;;;;;;;9.80;2.53;;;5.90;99.90;;;;;;5068952;28;20037;-70
2023/03/28 08:57:05;;;;;;;12.95;3.05;;;6.00;99.90;;;;;;5066556;28;20083;-70
2023/03/28 08:59:39;;;;;;;;;;;6.00;99.90;;;;;;5051864;28;20048;-68
2023/03/28 09:02:18;;;;;;;10.32;2.22;;;6.00;99.90;;;;;;5068769;28;19970;-67
2023/03/28 09:04:45;;;;;;;9.65;2.55;;;6.10;99.90;;;;;;5047127;28;20053;-69
2023/03/28 09:07:33;;;;;;;6.80;2.20;;;6.20;99.90;;;;;;5063483;28;20041;-69
2023/03/28 09:10:07;;;;;;;9.85;2.60;;;6.20;99.90;;;;;;5065288;28;20041;-69
2023/03/28 09:12:51;;;;;;;8.20;2.33;;;6.20;99.90;;;;;;5050138;28;20053;-69
2023/03/28 09:15:58;;;;;;;9.82;2.72;;;6.30;99.90;;;;;;5041147;28;20040;-69
2023/03/28 09:18:33;;;;;;;9.70;2.72;;;6.30;99.90;;;;;;5004184;28;20622;-68
2023/03/28 09:21:35;;;;;;;9.93;2.47;;;6.40;99.90;;;;;;5068593;28;20094;-69
2023/03/28 09:24:32;;;;;;;11.90;3.05;;;6.40;99.90;;;;;;5058549;28;20040;-68
2023/03/28 09:27:24;;;;;;;9.18;2.85;;;6.50;99.90;;;;;;5046159;28;20457;-69
2023/03/28 09:29:55;;;;;;;10.27;2.75;;;6.60;99.90;;;;;;5046787;28;20057;-69
2023/03/28 09:32:29;;;;;;;7.25;2.78;;;6.70;99.90;;;;;;5060721;28;20041;-69
2023/03/28 09:34:55;;;;;;;11.30;2.95;;;6.90;99.90;;;;;;5060907;28;20098;-69
2023/03/28 09:37:42;;;;;;;10.15;3.38;;;6.90;99.90;;;;;;5066068;28;20108;-69
2023/03/28 09:40:29;;;;;;;10.93;3.40;;;7.10;99.90;;;;;;5067084;28;20113;-69
2023/03/28 09:43:01;;;;;;;9.48;3.08;;;7.30;99.90;;;;;;5060865;28;20049;-69
2023/03/28 09:45:51;;;;;;;7.97;3.10;;;7.30;99.90;;;;;;5042851;28;20106;-69
2023/03/28 09:48:24;;;;;;;11.73;3.00;;;7.40;99.90;;;;;;5069764;28;20045;-68
2023/03/28 09:50:51;;;;;;;7.80;2.30;;;7.50;99.90;;;;;;5049502;28;20086;-69
2023/03/28 09:53:26;;;;;;;6.27;2.17;;;7.50;99.90;;;;;;5049076;28;20128;-68
2023/03/28 09:55:54;;;;;;;7.20;1.83;;;7.40;99.90;;;;;;5070071;28;20033;-69
2023/03/28 09:58:20;;;;;;;6.97;1.70;;;7.30;99.90;;;;;;5073083;28;20080;-70
2023/03/28 10:00:52;;;;;;;6.55;1.48;;;7.20;99.90;;;;;;5051229;28;20076;-68
2023/03/28 10:03:28;;;;;;;5.38;1.65;;;7.10;99.90;;;;;;5042455;28;20186;-69
2023/03/28 10:05:56;;;;;;;6.32;1.80;;;6.90;99.90;;;;;;5058671;28;20044;-70
2023/03/28 10:08:37;;;;;;;7.45;1.75;;;6.90;99.90;;;;;;5056234;28;20044;-69
2023/03/28 10:11:15;;;;;;;6.47;1.50;;;7.00;99.90;;;;;;5049666;28;20052;-70
2023/03/28 10:13:49;;;;;;;7.60;1.52;;;7.00;99.90;;;;;;5063158;28;20522;-69
2023/03/28 10:16:41;;;;;;;6.13;1.17;;;7.10;99.90;;;;;;5067361;28;20162;-70
2023/03/28 10:19:12;;;;;;;6.10;1.60;;;7.20;99.90;;;;;;5059544;28;20186;-72
2023/03/28 10:21:38;;;;;;;7.32;1.73;;;7.30;99.90;;;;;;5068664;28;20041;-68
2023/03/28 10:24:06;;;;;;;5.43;1.50;;;7.40;99.90;;;;;;5061340;28;20075;-68
2023/03/28 10:26:32;;;;;;;4.53;1.30;;;7.50;99.90;;;;;;5067580;28;20491;-69
2023/03/28 10:29:01;;;;;;;5.93;1.42;;;7.70;99.90;;;;;;5060645;28;20080;-69
2023/03/28 10:31:29;;;;;;;4.82;1.50;;;7.60;99.90;;;;;;5047260;28;20396;-68
2023/03/28 10:33:56;;;;;;;;;;;7.60;99.90;;;;;;5066872;28;20040;-69
2023/03/28 10:36:32;;;;;;;6.75;1.80;;;7.50;99.90;;;;;;5062069;28;19925;-67
2023/03/28 10:38:59;;;;;;;5.45;1.50;;;7.40;99.90;;;;;;5072653;28;20036;-68
2023/03/28 10:41:27;;;;;;;6.80;1.95;;;7.40;99.90;;;;;;5070049;28;20056;-68
2023/03/28 10:43:54;;;;;;;7.03;1.75;;;7.50;99.90;;;;;;5044946;28;20131;-69
2023/03/28 10:46:31;;;;;;;5.78;1.85;;;7.60;99.90;;;;;;5043710;28;20045;-69
2023/03/28 10:49:04;;;;;;;6.90;1.80;;;7.70;99.90;;;;;;5051427;28;20135;-69
2023/03/28 10:51:31;;;;;;;3.47;1.15;;;7.90;99.90;;;;;;5036159;28;20037;-69
2023/03/28 10:54:23;;;;;;;6.28;2.22;;;8.00;99.90;;;;;;5052999;28;20044;-70
2023/03/28 10:56:56;;;;;;;6.35;1.55;;;8.20;99.90;;;;;;5053911;28;20133;-69
2023/03/28 10:59:59;;;;;;;5.50;1.65;;;8.30;99.90;;;;;;5042108;28;20056;-70
2023/03/28 11:02:40;;;;;;;5.22;1.90;;;8.40;99.90;;;;;;5057127;28;20183;-69
2023/03/28 11:05:27;;;;;;;6.82;2.33;;;8.60;99.90;;;;;;5071471;28;20040;-70
2023/03/28 11:08:12;;;;;;;6.28;1.98;;;8.60;99.90;;;;;;5038340;28;20045;-69
2023/03/28 11:10:56;;;;;;;8.45;1.60;;;8.60;99.30;;;;;;5053882;28;20107;-70
2023/03/28 11:13:45;;;;;;;6.43;2.17;;;8.50;99.00;;;;;;5053229;28;20045;-71
2023/03/28 11:16:10;;;;;;;6.25;1.73;;;8.40;98.70;;;;;;5056135;28;20041;-71
2023/03/28 11:19:22;;;;;;;7.60;1.88;;;8.30;99.00;;;;;;5066538;28;20048;-69
2023/03/28 11:22:05;;;;;;;6.88;2.20;;;8.30;99.60;;;;;;5059764;28;20087;-71
2023/03/28 11:25:10;;;;;;;5.70;2.08;;;8.30;99.90;;;;;;5063770;28;20606;-71
2023/03/28 11:28:15;;;;;;;5.93;1.70;;;8.40;99.90;;;;;;5018538;28;20147;-69
2023/03/28 11:30:43;;;;;;;6.30;1.77;;;8.40;99.90;;;;;;4969297;28;20042;-70
2023/03/28 11:33:25;;;;;;;5.88;1.85;;;8.40;99.90;;;;;;5041532;28;20057;-69
2023/03/28 11:35:59;;;;;;;5.82;2.35;;;8.50;99.90;;;;;;5064925;28;20488;-71
2023/03/28 11:38:40;;;;;;;6.10;1.90;;;8.50;99.90;;;;;;5051678;28;21342;-70
2023/03/28 11:41:14;;;;;;;6.88;1.88;;;8.60;99.50;;;;;;5067140;28;20036;-70
2023/03/28 11:43:43;;;;;;;5.25;1.92;;;8.60;99.30;;;;;;5067377;28;20123;-70
2023/03/28 11:46:17;;;;;;;6.53;1.90;;;8.50;99.90;;;;;;5062385;28;21668;-70
2023/03/28 11:49:17;;;;;;;6.63;2.10;;;8.60;99.80;;;;;;5061111;28;20055;-70
2023/03/28 11:51:56;;;;;;;5.80;1.92;;;8.60;99.50;;;;;;5048368;28;20499;-70
2023/03/28 11:55:05;;;;;;;7.40;2.10;;;8.60;99.60;;;;;;5062882;28;20045;-70
2023/03/28 11:57:50;;;;;;;7.40;2.15;;;8.70;97.70;;;;;;5060315;28;20785;-70
2023/03/28 12:00:22;;;;;;;8.00;2.40;;;8.80;99.00;;;;;;5065160;28;20092;-70
2023/03/28 12:02:56;;;;;;;7.38;2.72;;;8.90;99.90;;;;;;5061353;28;20048;-70
2023/03/28 12:05:49;;;;;;;6.53;2.10;;;8.90;99.60;;;;;;5054897;28;20052;-70
2023/03/28 12:08:42;;;;;;;5.97;2.20;;;9.00;99.60;;;;;;5032169;28;20061;-70
2023/03/28 12:11:19;;;;;;;6.45;2.53;;;9.00;98.20;;;;;;4997122;28;20056;-71
2023/03/28 12:13:53;;;;;;;10.88;2.65;;;9.00;98.10;;;;;;5048289;28;20053;-72
2023/03/28 12:16:46;;;;;;;6.18;2.97;;;9.10;97.80;;;;;;5048789;28;20041;-68
2023/03/28 12:19:17;;;;;;;7.82;2.70;;;9.10;97.90;;;;;;5061413;28;20040;-73
2023/03/28 12:21:53;;;;;;;5.93;2.60;;;9.20;98.70;;;;;;5042417;28;20434;-68
2023/03/28 12:24:39;;;;;;;7.30;2.42;;;9.30;97.60;;;;;;5061391;28;20029;-71
2023/03/28 12:27:41;;;;;;;6.63;2.40;;;9.30;94.50;;;;;;5033687;28;20487;-74
2023/03/28 12:30:21;;;;;;;5.43;2.40;;;9.30;93.70;;;;;;5059847;28;20041;-75
2023/03/28 12:33:21;;;;;;;5.85;2.55;;;9.40;96.60;;;;;;5068285;28;20117;-72
2023/03/28 12:35:57;;;;;;;6.07;2.33;;;9.40;91.60;;;;;;5056547;28;20047;-71
2023/03/28 12:38:31;;;;;;;5.68;2.35;;;9.40;93.80;;;;;;5067945;28;20075;-72
2023/03/28 12:41:08;;;;;;;5.25;2.45;;;9.40;92.20;;;;;;5058207;28;20078;-78
2023/03/28 12:43:43;;;;;;;5.55;2.50;;;9.50;91.80;;;;;;5051512;28;20063;-75
2023/03/28 12:46:12;;;;;;;5.80;2.63;;;9.50;93.20;;;;;;5049958;28;20044;-72
2023/03/28 12:48:43;;;;;;;6.57;2.72;;;9.70;93.70;;;;;;5055037;28;20049;-73
2023/03/28 12:51:34;;;;;;;7.80;2.55;;;9.70;93.40;;;;;;5016386;28;20155;-74
2023/03/28 12:54:14;;;;;;;9.00;2.50;;;9.80;92.50;;;;;;5062031;28;20484;-71
2023/03/28 12:56:43;;;;;;;10.88;5.63;;;9.80;94.40;;;;;;5063885;28;20089;-77
2023/03/28 12:59:37;;;;;;;10.93;3.92;;;9.90;93.20;;;;;;5044950;28;20060;-75
2023/03/28 13:02:32;;;;;;;6.32;2.78;;;9.90;93.70;;;;;;5061736;28;20158;-76
2023/03/28 13:05:29;;;;;;;8.40;2.85;;;10.00;94.30;;;;;;5039105;28;20132;-75
2023/03/28 13:08:26;;;;;;;6.57;2.20;;;10.00;89.80;;;;;;5049327;28;20107;-73
2023/03/28 13:11:27;;;;;;;4.70;2.42;;;10.00;86.80;;;;;;5053790;28;20075;-73
2023/03/28 13:14:14;;;;;;;6.07;2.22;;;10.00;90.50;;;;;;5066658;28;20045;-76
2023/03/28 13:17:23;;;;;;;6.88;2.40;;;10.00;90.40;;;;;;5047419;28;20049;-72
2023/03/28 13:20:05;;;;;;;7.80;2.65;;;9.90;85.50;;;;;;5032453;28;20052;-72
2023/03/28 13:22:40;;;;;;;8.10;2.90;;;9.90;92.30;;;;;;5057774;28;20049;-74